Latest Weather Observations for Swan Hill

IDN60801

Issued at 5:03 pm EDT Sunday 22 October 2017 (issued every 30 minutes, with the page automatically refreshed every 10 minutes)

About weather observations | Map of weather stations | Latest weather observations for NSW | Other Formats
Station Details ID: 077094 Name: SWAN HILL AERODROME Lat: -35.38 Lon: 143.54 Height: 71.0 m
Data from the previous 72 hours. | See also: Recent months at Swan Hill
Date/Time
EDT
Temp
°C
App
Temp
°C
Dew
Point
°C
Rel
Hum
%
Delta-T
°C
Wind Press
QNH
hPa
Press
MSL
hPa
Rain since
9am
mm
Dir  Spd
km/h
Gust
km/h
Spd
kts
Gust
kts
22/05:00pm 20.8 15.8 4.4 34 8.0 SSW 20 30 11 16 1015.9 1015.9 0.0
22/04:30pm 21.5 16.4 4.1 32 8.4 S 20 30 11 16 1015.9 1015.9 0.0
22/04:00pm 21.4 16.3 4.0 32 8.4 S 20 30 11 16 1016.2 1016.2 0.0
22/03:30pm 22.1 17.6 4.2 31 8.8 S 17 28 9 15 1016.3 1016.3 0.0
22/03:00pm 21.7 16.9 4.7 33 8.4 SSW 19 30 10 16 1016.8 1016.8 0.0
22/02:30pm 21.0 16.6 4.6 34 8.0 SSW 17 28 9 15 1017.2 1017.2 0.0
22/02:00pm 20.1 15.5 3.8 34 7.8 SSW 17 33 9 18 1017.4 1017.4 0.0
22/01:30pm 19.7 14.8 4.2 36 7.4 SW 19 32 10 17 1017.7 1017.7 0.0
22/01:00pm 18.1 13.0 4.3 40 6.6 SW 20 32 11 17 1018.4 1018.3 0.0
22/12:30pm 18.1 13.2 5.0 42 6.3 SW 20 37 11 20 1018.7 1018.6 0.0
22/12:00pm 17.0 12.2 4.7 44 5.8 SW 19 32 10 17 1019.3 1019.2 0.0
22/11:30am 15.7 10.3 4.7 48 5.2 SSW 22 32 12 17 1019.8 1019.7 0.0
22/11:00am 15.5 10.7 5.7 52 4.7 SSW 20 32 11 17 1020.1 1020.0 0.0
22/10:30am 13.9 9.2 5.3 56 4.0 SSW 19 32 10 17 1020.3 1020.2 0.0
22/10:00am 12.4 7.1 5.1 61 3.4 SSW 22 33 12 18 1020.5 1020.4 0.0
22/09:30am 12.6 8.4 5.5 62 3.3 SSW 17 32 9 17 1020.5 1020.4 0.0
22/09:00am 11.7 6.8 5.1 64 3.0 SSW 20 35 11 19 1020.2 1020.1 0.0
22/08:30am 10.8 6.2 5.6 70 2.4 SW 19 24 10 13 1020.0 1019.9 0.0
22/08:00am 9.8 5.9 5.4 74 2.0 SW 15 20 8 11 1019.7 1019.6 0.0
22/07:30am 8.1 4.6 5.6 84 1.1 SW 13 17 7 9 1019.5 1019.4 0.0
22/07:00am 6.1 2.3 4.1 87 0.9 SW 13 17 7 9 1019.2 1019.1 0.0
22/06:30am 5.8 2.4 3.8 87 0.8 WSW 11 11 6 6 1018.6 1018.5 0.0
22/06:00am 6.2 3.0 3.2 81 1.3 WSW 9 13 5 7 1018.7 1018.6 0.0
22/05:30am 9.1 5.9 5.1 76 1.8 SSW 11 17 6 9 1018.8 1018.7 0.0
22/05:00am 10.1 6.2 5.5 73 2.1 SSW 15 20 8 11 1019.0 1018.9 0.0
22/04:30am 10.7 6.5 5.7 71 2.3 SSW 17 24 9 13 1019.1 1019.0 0.0
22/04:00am 10.3 6.5 5.7 73 2.1 SSW 15 24 8 13 1019.2 1019.1 0.0
22/03:30am 9.6 6.1 5.4 75 1.9 SSW 13 19 7 10 1019.4 1019.3 0.0
22/03:00am 8.4 4.8 5.0 79 1.5 SW 13 17 7 9 1019.8 1019.7 0.0
22/02:30am 8.0 3.9 4.4 78 1.6 SW 15 17 8 9 1019.9 1019.8 0.0
22/02:00am 8.3 4.6 4.3 76 1.7 SW 13 17 7 9 1020.1 1020.0 0.0
22/01:30am 8.3 5.3 3.9 74 1.9 SW 9 11 5 6 1020.3 1020.2 0.0
22/01:00am 8.8 5.0 3.8 71 2.2 SW 13 15 7 8 1020.6 1020.5 0.0
22/12:30am 9.5 5.7 3.9 68 2.5 SW 13 17 7 9 1020.8 1020.7 0.0
22/12:00am 10.0 6.2 3.7 65 2.8 SW 13 15 7 8 1021.0 1020.9 0.0
 
Date/Time
EDT
Temp
°C
App
Temp
°C
Dew
Point
°C
Rel
Hum
%
Delta-T
°C
Wind Press
QNH
hPa
Press
MSL
hPa
Rain since
9am
mm
Dir  Spd
km/h
Gust
km/h
Spd
kts
Gust
kts
21/11:30pm 10.8 7.0 3.8 62 3.1 SW 13 19 7 10 1021.0 1020.9 0.0
21/11:00pm 11.5 8.1 4.0 60 3.3 SSW 11 19 6 10 1021.2 1021.1 0.0
21/10:30pm 12.3 8.1 4.0 57 3.7 SSW 15 22 8 12 1021.2 1021.1 0.0
21/10:00pm 12.6 8.8 4.1 56 3.8 SW 13 17 7 9 1021.3 1021.2 0.0
21/09:30pm 13.2 9.1 4.1 54 4.1 SW 15 19 8 10 1021.2 1021.1 0.0
21/09:00pm 14.0 10.2 4.0 51 4.6 SSW 13 19 7 10 1021.0 1020.9 0.0
21/08:30pm 15.0 11.2 3.8 47 5.1 S 13 19 7 10 1020.9 1020.8 0.0
21/08:00pm 16.2 11.6 3.9 44 5.7 S 17 28 9 15 1020.7 1020.6 0.0
21/07:30pm 17.5 12.2 3.0 38 6.7 SSW 20 33 11 18 1020.5 1020.4 0.0
21/07:00pm 18.5 12.8 2.8 35 7.2 SSW 22 32 12 17 1020.3 1020.2 0.0
21/06:30pm 18.5 13.2 3.2 36 7.1 SSW 20 30 11 16 1020.4 1020.3 0.0
21/06:00pm 20.0 14.6 2.4 31 8.2 SSW 20 32 11 17 1020.2 1020.1 0.0
21/05:30pm 20.5 14.3 2.3 30 8.5 SSW 24 39 13 21 1020.6 1020.5 0.0
21/05:00pm 19.6 13.4 2.0 31 8.1 SSW 24 39 13 21 1020.5 1020.4 0.0
21/04:30pm 20.6 14.4 2.0 29 8.6 SW 24 33 13 18 1020.6 1020.5 0.0
21/04:00pm 20.9 14.5 1.2 27 9.0 SW 24 43 13 23 1021.0 1020.9 0.0
21/03:30pm 20.5 14.8 2.8 31 8.3 SSW 22 37 12 20 1021.2 1021.1 0.0
21/03:00pm 20.7 15.3 2.5 30 8.5 SSW 20 32 11 17 1021.8 1021.7 0.0
21/02:30pm 19.9 14.1 2.3 31 8.2 SSW 22 41 12 22 1022.2 1022.1 0.0
21/02:00pm 19.2 12.8 3.0 34 7.5 SW 26 43 14 23 1022.6 1022.5 0.0
21/01:30pm 19.4 14.2 2.7 33 7.8 SSW 19 32 10 17 1023.0 1022.9 0.0
21/01:00pm 18.1 12.7 2.4 35 7.2 SSW 20 30 11 16 1023.5 1023.4 0.0
21/12:30pm 17.9 13.1 2.6 36 7.0 S 17 26 9 14 1024.0 1023.9 0.0
21/12:00pm 16.7 11.6 3.1 40 6.2 SSW 19 28 10 15 1024.7 1024.6 0.0
21/11:30am 15.9 10.6 3.0 42 5.9 SSW 20 30 11 16 1025.3 1025.2 0.0
21/11:00am 15.3 10.7 3.5 45 5.4 S 17 26 9 14 1025.7 1025.6 0.0
21/10:30am 13.8 9.1 3.0 48 4.8 S 17 26 9 14 1026.0 1025.9 0.0
21/10:00am 13.6 8.3 3.1 49 4.7 SSE 20 32 11 17 1026.1 1026.0 0.0
21/09:30am 12.9 7.3 3.3 52 4.3 S 22 33 12 18 1026.1 1026.0 0.0
21/09:00am 11.7 6.1 3.2 56 3.7 S 22 32 12 17 1026.1 1026.0 0.0
21/08:30am 10.6 5.9 3.4 61 3.2 S 17 30 9 16 1026.2 1026.1 0.0
21/08:00am 8.9 4.9 3.1 67 2.5 S 13 22 7 12 1026.1 1026.0 0.0
21/07:30am 7.1 2.7 2.6 73 1.9 SSW 15 22 8 12 1025.8 1025.7 0.0
21/07:00am 6.0 1.1 2.3 77 1.5 SSW 17 22 9 12 1025.6 1025.5 0.0
21/06:30am 5.9 1.4 2.4 78 1.4 SSW 15 22 8 12 1025.5 1025.4 0.0
21/06:00am 5.9 1.8 2.2 77 1.5 S 13 20 7 11 1025.4 1025.3 0.0
21/05:30am 5.8 1.7 2.4 79 1.4 SSW 13 19 7 10 1025.6 1025.5 0.0
21/05:00am 5.9 2.2 2.2 77 1.5 SSW 11 17 6 9 1025.7 1025.6 0.0
21/04:30am 5.9 2.6 2.2 77 1.5 S 9 15 5 8 1025.9 1025.8 0.0
21/04:00am 6.2 2.5 2.3 76 1.6 S 11 15 6 8 1025.8 1025.7 0.0
21/03:30am 6.8 3.1 2.5 74 1.8 S 11 17 6 9 1026.0 1025.9 0.0
21/03:00am 7.0 2.9 2.5 73 1.9 S 13 19 7 10 1026.3 1026.2 0.0
21/02:30am 7.3 3.2 2.4 71 2.0 S 13 17 7 9 1026.5 1026.4 0.0
21/02:00am 7.9 3.9 2.6 69 2.2 S 13 19 7 10 1026.9 1026.8 0.0
21/01:30am 8.3 4.3 2.8 68 2.3 S 13 19 7 10 1027.1 1027.0 0.0
21/01:00am 9.0 5.0 2.8 65 2.6 S 13 20 7 11 1027.1 1027.0 0.0
21/12:30am 9.7 5.4 3.0 63 2.9 S 15 24 8 13 1027.2 1027.2 0.0
21/12:00am 10.6 5.9 2.9 59 3.3 S 17 26 9 14 1027.0 1026.9 0.0
 
Date/Time
EDT
Temp
°C
App
Temp
°C
Dew
Point
°C
Rel
Hum
%
Delta-T
°C
Wind Press
QNH
hPa
Press
MSL
hPa
Rain since
9am
mm
Dir  Spd
km/h
Gust
km/h
Spd
kts
Gust
kts
20/11:30pm 11.1 6.4 3.2 58 3.5 S 17 24 9 13 1027.0 1026.9 0.0
20/11:00pm 11.8 6.7 3.1 55 3.8 S 19 24 10 13 1027.0 1026.9 0.0
20/10:30pm 12.4 7.3 3.1 53 4.1 SSW 19 30 10 16 1027.0 1026.9 0.0
20/10:00pm 13.1 7.8 2.9 50 4.5 SSW 20 33 11 18 1026.9 1026.8 0.0
20/09:30pm 13.8 8.5 3.0 48 4.8 SSW 20 33 11 18 1026.7 1026.6 0.0
20/09:00pm 14.5 9.1 2.7 45 5.2 SSW 20 33 11 18 1026.4 1026.3 0.0
20/08:30pm 15.5 10.5 1.3 38 6.2 S 17 24 9 13 1026.0 1025.9 0.0
20/08:00pm 16.6 11.2 1.1 35 6.8 S 19 30 10 16 1025.5 1025.4 0.0
20/07:30pm 17.8 11.4 0.9 32 7.5 S 24 35 13 19 1024.9 1024.8 0.0
20/07:00pm 18.9 12.4 0.0 28 8.3 S 24 41 13 22 1024.5 1024.4 0.0
20/06:30pm 19.6 12.3 0.1 27 8.6 S 28 41 15 22 1024.3 1024.2 0.0
20/06:00pm 20.4 14.0 0.8 27 8.8 S 24 39 13 21 1024.2 1024.1 0.0
20/05:30pm 21.2 14.3 0.4 25 9.4 S 26 41 14 22 1024.0 1023.9 0.0
20/05:00pm 21.4 14.6 0.6 25 9.4 SSW 26 41 14 22 1023.8 1023.7 0.0
20/04:30pm 21.3 14.0 -0.1 24 9.6 S 28 39 15 21 1023.9 1023.8 0.0
20/04:00pm 21.3 14.7 -0.6 23 9.6 SSW 24 39 13 21 1024.1 1024.0 0.0
20/03:44pm 21.1 13.6 -1.4 22 9.8 S 28 56 15 30 1024.3 1024.2 0.0
20/03:30pm 21.5 14.9 -0.5 23 9.8 S 24 41 13 22 1024.4 1024.3 0.0
20/03:08pm 20.6 13.2 -0.7 24 9.4 SSW 28 46 15 25 1024.5 1024.4 0.0
20/03:00pm 21.0 14.2 -1.5 22 9.7 SSW 24 43 13 23 1024.6 1024.5 0.0
20/02:30pm 20.8 14.0 -1.7 22 9.7 S 24 39 13 21 1025.2 1025.1 0.0
20/02:00pm 20.1 13.4 -1.1 24 9.1 SSW 24 46 13 25 1025.4 1025.3 0.0
20/01:53pm 20.3 13.6 -0.9 24 9.2 SSW 24 46 13 25 1025.5 1025.4 0.0
20/01:30pm 19.8 13.6 -0.2 26 8.8 SSW 22 35 12 19 1025.7 1025.6 0.0
20/01:00pm 19.4 12.9 0.4 28 8.4 SSW 24 39 13 21 1026.0 1025.9 0.0
20/12:30pm 18.2 11.7 0.4 30 7.8 S 24 39 13 21 1026.4 1026.3 0.0
20/12:00pm 17.6 11.2 0.7 32 7.4 SSW 24 43 13 23 1026.7 1026.6 0.0
20/11:30am 17.5 12.0 1.9 35 7.0 SSW 20 32 11 17 1026.9 1026.8 0.0
20/11:00am 16.5 10.4 2.5 39 6.3 SSW 24 35 13 19 1027.2 1027.2 0.0
20/10:30am 16.3 11.1 3.4 42 5.9 S 20 37 11 20 1027.2 1027.2 0.0
20/10:00am 15.3 10.4 5.0 50 4.8 S 20 32 11 17 1027.2 1027.2 0.0
20/09:30am 14.6 8.9 4.9 52 4.5 S 24 37 13 20 1026.9 1026.8 0.0
20/09:00am 14.5 9.7 5.6 55 4.2 S 20 35 11 19 1026.8 1026.7 0.0
20/08:30am 13.3 8.6 5.9 61 3.5 SSW 20 32 11 17 1026.6 1026.5 0.0
20/08:00am 11.5 6.7 5.6 67 2.7 SSW 20 32 11 17 1026.3 1026.2 0.0
20/07:30am 9.3 5.5 5.7 78 1.6 SW 15 20 8 11 1026.0 1025.9 0.0
20/07:00am 7.7 3.7 5.0 83 1.2 SW 15 19 8 10 1025.6 1025.5 0.0
20/06:30am 8.1 4.5 5.0 81 1.4 SSW 13 17 7 9 1025.1 1025.0 0.0
20/06:00am 8.5 4.6 5.4 81 1.4 SW 15 22 8 12 1025.0 1024.9 0.0
20/05:30am 8.8 5.7 5.4 79 1.5 SSW 11 15 6 8 1024.5 1024.4 0.0
20/05:00am 9.6 5.4 5.8 77 1.7 SSW 17 24 9 13 1024.2 1024.1 0.0
20/04:30am 10.2 6.1 6.2 76 1.9 SSW 17 24 9 13 1024.1 1024.0 0.0
20/04:00am 9.9 6.9 6.1 77 1.8 SSW 11 19 6 10 1024.0 1023.9 0.0
20/03:30am 10.0 6.5 5.6 74 2.0 SSW 13 17 7 9 1024.0 1023.9 0.0
20/03:00am 10.7 6.9 5.7 71 2.3 SSW 15 22 8 12 1023.8 1023.7 0.0
20/02:30am 11.4 6.8 5.7 68 2.7 SW 19 30 10 16 1023.8 1023.7 0.0
20/02:00am 12.2 6.6 5.6 64 3.1 SW 24 35 13 19 1023.6 1023.5 0.0
20/01:30am 12.7 6.8 5.8 63 3.3 SW 26 35 14 19 1023.6 1023.5 0.0
20/01:00am 13.2 8.1 6.1 62 3.4 SW 22 33 12 18 1023.4 1023.3 0.0
20/12:30am 14.0 8.2 6.4 60 3.7 SW 26 37 14 20 1023.2 1023.1 0.0
20/12:00am 14.9 8.4 6.5 57 4.1 SW 30 41 16 22 1022.8 1022.7 0.0
 
Date/Time
EDT
Temp
°C
App
Temp
°C
Dew
Point
°C
Rel
Hum
%
Delta-T
°C
Wind Press
QNH
hPa
Press
MSL
hPa
Rain since
9am
mm
Dir  Spd
km/h
Gust
km/h
Spd
kts
Gust
kts
19/11:30pm 15.6 9.8 6.3 54 4.5 SW 26 35 14 19 1022.7 1022.6 0.0
19/11:00pm 16.7 11.4 6.8 52 4.9 SW 24 37 13 20 1022.8 1022.7 0.0
19/10:30pm 17.3 11.2 6.5 49 5.3 SW 28 37 15 20 1023.2 1023.1 0.0
19/10:00pm 18.1 11.6 6.3 46 5.8 SW 30 41 16 22 1022.8 1022.7 0.0
19/09:30pm 19.2 12.9 9.1 52 5.3 SW 32 43 17 23 1021.9 1021.8 0.0
19/09:00pm 19.7 15.9 9.9 53 5.2 SW 20 35 11 19 1021.2 1021.1 0.0
19/08:30pm 20.1 14.4 9.9 52 5.5 SW 30 41 16 22 1020.9 1020.8 0.0
19/08:00pm 20.7 16.3 10.5 52 5.5 SW 24 37 13 20 1020.2 1020.1 0.0
19/07:30pm 21.5 17.3 11.2 52 5.7 SW 24 35 13 19 1019.3 1019.2 0.0
19/07:00pm 22.5 16.2 10.9 48 6.4 SW 35 46 19 25 1018.8 1018.7 0.0
19/06:48pm 23.0 17.3 11.7 49 6.4 SW 33 52 18 28 1018.5 1018.4 0.0
19/06:30pm 23.8 18.2 12.1 48 6.7 SW 33 46 18 25 1017.9 1017.9 0.0
19/06:00pm 24.5 18.8 13.1 49 6.6 SW 35 48 19 26 1017.1 1017.1 0.0
19/05:30pm 26.0 20.6 12.8 44 7.7 WSW 33 43 18 23 1016.6 1016.6 0.0

Other Formats:

Comma delimited format used in spreadsheet applications
http://www.bom.gov.au/fwo/IDN60801/IDN60801.94843.axf

JavaScript Object Notation format (JSON) in row-major order
http://www.bom.gov.au/fwo/IDN60801/IDN60801.94843.json